sensor_id;sensor_type;location;lat;lon;timestamp;P1;durP1;ratioP1;P2;durP2;ratioP2
22417;SDS011;11376;50.932;4.442;2022-07-23T00:00:29;14.40;;;8.65;;
22417;SDS011;11376;50.932;4.442;2022-07-23T00:02:54;16.17;;;8.07;;
22417;SDS011;11376;50.932;4.442;2022-07-23T00:05:20;17.17;;;9.50;;
22417;SDS011;11376;50.932;4.442;2022-07-23T00:07:45;15.88;;;9.45;;
22417;SDS011;11376;50.932;4.442;2022-07-23T00:10:11;17.50;;;9.77;;
22417;SDS011;11376;50.932;4.442;2022-07-23T00:12:37;15.98;;;9.60;;
22417;SDS011;11376;50.932;4.442;2022-07-23T00:15:04;14.80;;;9.55;;
22417;SDS011;11376;50.932;4.442;2022-07-23T00:17:30;16.73;;;10.25;;
22417;SDS011;11376;50.932;4.442;2022-07-23T00:19:56;16.38;;;10.07;;
22417;SDS011;11376;50.932;4.442;2022-07-23T00:22:22;16.58;;;9.88;;
22417;SDS011;11376;50.932;4.442;2022-07-23T00:24:47;15.32;;;9.95;;
22417;SDS011;11376;50.932;4.442;2022-07-23T00:27:13;20.17;;;10.52;;
22417;SDS011;11376;50.932;4.442;2022-07-23T00:29:39;21.33;;;11.27;;
22417;SDS011;11376;50.932;4.442;2022-07-23T00:32:04;16.15;;;10.23;;
22417;SDS011;11376;50.932;4.442;2022-07-23T00:34:30;15.48;;;10.00;;
22417;SDS011;11376;50.932;4.442;2022-07-23T00:36:56;16.80;;;10.00;;
22417;SDS011;11376;50.932;4.442;2022-07-23T00:39:21;18.67;;;10.57;;
22417;SDS011;11376;50.932;4.442;2022-07-23T00:41:48;16.67;;;10.98;;
22417;SDS011;11376;50.932;4.442;2022-07-23T00:44:15;18.27;;;10.90;;
22417;SDS011;11376;50.932;4.442;2022-07-23T00:46:53;17.08;;;10.57;;
22417;SDS011;11376;50.932;4.442;2022-07-23T00:49:21;15.63;;;10.32;;
22417;SDS011;11376;50.932;4.442;2022-07-23T00:51:48;16.40;;;10.85;;
22417;SDS011;11376;50.932;4.442;2022-07-23T00:54:15;21.92;;;11.27;;
22417;SDS011;11376;50.932;4.442;2022-07-23T00:56:45;19.15;;;11.75;;
22417;SDS011;11376;50.932;4.442;2022-07-23T00:59:11;17.75;;;11.45;;
22417;SDS011;11376;50.932;4.442;2022-07-23T01:01:38;20.95;;;12.10;;
22417;SDS011;11376;50.932;4.442;2022-07-23T01:04:04;19.20;;;11.85;;
22417;SDS011;11376;50.932;4.442;2022-07-23T01:06:30;18.45;;;11.25;;
22417;SDS011;11376;50.932;4.442;2022-07-23T01:09:03;19.27;;;10.93;;
22417;SDS011;11376;50.932;4.442;2022-07-23T01:11:35;18.65;;;11.25;;
22417;SDS011;11376;50.932;4.442;2022-07-23T01:14:11;20.92;;;11.57;;
22417;SDS011;11376;50.932;4.442;2022-07-23T01:16:39;20.13;;;12.15;;
22417;SDS011;11376;50.932;4.442;2022-07-23T01:19:06;17.38;;;11.38;;
22417;SDS011;11376;50.932;4.442;2022-07-23T01:21:36;19.50;;;12.20;;
22417;SDS011;11376;50.932;4.442;2022-07-23T01:24:06;18.77;;;11.15;;
22417;SDS011;11376;50.932;4.442;2022-07-23T01:26:33;17.15;;;11.30;;
22417;SDS011;11376;50.932;4.442;2022-07-23T01:28:58;17.05;;;11.15;;
22417;SDS011;11376;50.932;4.442;2022-07-23T01:31:24;20.83;;;11.43;;
22417;SDS011;11376;50.932;4.442;2022-07-23T01:33:50;21.70;;;11.45;;
22417;SDS011;11376;50.932;4.442;2022-07-23T01:36:16;20.20;;;11.73;;
22417;SDS011;11376;50.932;4.442;2022-07-23T01:38:41;18.65;;;11.05;;
22417;SDS011;11376;50.932;4.442;2022-07-23T01:41:07;19.45;;;11.80;;
22417;SDS011;11376;50.932;4.442;2022-07-23T01:43:32;18.50;;;11.38;;
22417;SDS011;11376;50.932;4.442;2022-07-23T01:45:58;18.67;;;11.82;;
22417;SDS011;11376;50.932;4.442;2022-07-23T01:48:23;20.40;;;12.23;;
22417;SDS011;11376;50.932;4.442;2022-07-23T01:50:49;22.05;;;12.80;;
22417;SDS011;11376;50.932;4.442;2022-07-23T01:53:15;22.08;;;12.77;;
22417;SDS011;11376;50.932;4.442;2022-07-23T01:55:41;20.10;;;12.30;;
22417;SDS011;11376;50.932;4.442;2022-07-23T01:58:07;20.52;;;12.20;;
22417;SDS011;11376;50.932;4.442;2022-07-23T02:00:33;19.58;;;11.68;;
22417;SDS011;11376;50.932;4.442;2022-07-23T02:02:58;20.85;;;12.07;;
22417;SDS011;11376;50.932;4.442;2022-07-23T02:05:24;20.88;;;12.48;;
22417;SDS011;11376;50.932;4.442;2022-07-23T02:07:51;21.17;;;11.88;;
22417;SDS011;11376;50.932;4.442;2022-07-23T02:10:17;21.90;;;12.63;;
22417;SDS011;11376;50.932;4.442;2022-07-23T02:12:43;19.05;;;11.93;;
22417;SDS011;11376;50.932;4.442;2022-07-23T02:15:08;24.27;;;12.23;;
22417;SDS011;11376;50.932;4.442;2022-07-23T02:17:34;19.00;;;11.82;;
22417;SDS011;11376;50.932;4.442;2022-07-23T02:20:00;21.23;;;11.55;;
22417;SDS011;11376;50.932;4.442;2022-07-23T02:22:26;20.27;;;12.50;;
22417;SDS011;11376;50.932;4.442;2022-07-23T02:24:51;19.90;;;12.25;;
22417;SDS011;11376;50.932;4.442;2022-07-23T02:27:17;19.83;;;12.10;;
22417;SDS011;11376;50.932;4.442;2022-07-23T02:29:43;21.52;;;12.63;;
22417;SDS011;11376;50.932;4.442;2022-07-23T02:32:08;20.23;;;11.82;;
22417;SDS011;11376;50.932;4.442;2022-07-23T02:34:34;20.33;;;12.50;;
22417;SDS011;11376;50.932;4.442;2022-07-23T02:36:59;18.92;;;11.82;;
22417;SDS011;11376;50.932;4.442;2022-07-23T02:39:25;18.40;;;11.73;;
22417;SDS011;11376;50.932;4.442;2022-07-23T02:41:52;20.27;;;11.90;;
22417;SDS011;11376;50.932;4.442;2022-07-23T02:44:17;22.23;;;12.25;;
22417;SDS011;11376;50.932;4.442;2022-07-23T02:46:43;18.92;;;12.10;;
22417;SDS011;11376;50.932;4.442;2022-07-23T02:49:08;21.17;;;12.40;;
22417;SDS011;11376;50.932;4.442;2022-07-23T02:51:34;20.30;;;11.38;;
22417;SDS011;11376;50.932;4.442;2022-07-23T02:54:00;25.00;;;12.60;;
22417;SDS011;11376;50.932;4.442;2022-07-23T02:56:25;19.05;;;11.40;;
22417;SDS011;11376;50.932;4.442;2022-07-23T02:58:51;19.85;;;12.10;;
22417;SDS011;11376;50.932;4.442;2022-07-23T03:01:16;22.38;;;12.20;;
22417;SDS011;11376;50.932;4.442;2022-07-23T03:03:42;22.95;;;12.27;;
22417;SDS011;11376;50.932;4.442;2022-07-23T03:06:08;19.42;;;11.63;;
22417;SDS011;11376;50.932;4.442;2022-07-23T03:08:33;20.25;;;11.52;;
22417;SDS011;11376;50.932;4.442;2022-07-23T03:10:59;22.77;;;12.38;;
22417;SDS011;11376;50.932;4.442;2022-07-23T03:13:25;21.40;;;12.32;;
22417;SDS011;11376;50.932;4.442;2022-07-23T03:15:51;22.92;;;12.88;;
22417;SDS011;11376;50.932;4.442;2022-07-23T03:18:16;19.30;;;12.32;;
22417;SDS011;11376;50.932;4.442;2022-07-23T03:20:42;22.20;;;12.50;;
22417;SDS011;11376;50.932;4.442;2022-07-23T03:23:07;22.27;;;12.07;;
22417;SDS011;11376;50.932;4.442;2022-07-23T03:25:33;20.27;;;11.68;;
22417;SDS011;11376;50.932;4.442;2022-07-23T03:27:58;22.10;;;11.95;;
22417;SDS011;11376;50.932;4.442;2022-07-23T03:30:24;22.50;;;11.85;;
22417;SDS011;11376;50.932;4.442;2022-07-23T03:32:50;19.65;;;11.43;;
22417;SDS011;11376;50.932;4.442;2022-07-23T03:35:15;20.05;;;12.05;;
22417;SDS011;11376;50.932;4.442;2022-07-23T03:37:41;21.13;;;11.82;;
22417;SDS011;11376;50.932;4.442;2022-07-23T03:40:06;22.63;;;11.77;;
22417;SDS011;11376;50.932;4.442;2022-07-23T03:42:32;19.75;;;11.30;;
22417;SDS011;11376;50.932;4.442;2022-07-23T03:44:58;19.35;;;12.13;;
22417;SDS011;11376;50.932;4.442;2022-07-23T03:47:24;22.92;;;11.52;;
22417;SDS011;11376;50.932;4.442;2022-07-23T03:49:49;19.58;;;11.25;;
22417;SDS011;11376;50.932;4.442;2022-07-23T03:52:15;20.80;;;12.07;;
22417;SDS011;11376;50.932;4.442;2022-07-23T03:54:40;21.65;;;12.25;;
22417;SDS011;11376;50.932;4.442;2022-07-23T03:57:06;20.23;;;11.68;;
22417;SDS011;11376;50.932;4.442;2022-07-23T03:59:32;19.80;;;11.68;;
22417;SDS011;11376;50.932;4.442;2022-07-23T04:01:57;20.30;;;11.95;;
22417;SDS011;11376;50.932;4.442;2022-07-23T04:04:23;23.23;;;11.88;;
22417;SDS011;11376;50.932;4.442;2022-07-23T04:06:49;19.92;;;12.30;;
22417;SDS011;11376;50.932;4.442;2022-07-23T04:09:14;21.50;;;12.93;;
22417;SDS011;11376;50.932;4.442;2022-07-23T04:11:40;18.48;;;11.52;;
22417;SDS011;11376;50.932;4.442;2022-07-23T04:14:06;22.88;;;11.88;;
22417;SDS011;11376;50.932;4.442;2022-07-23T04:16:32;22.02;;;11.73;;
22417;SDS011;11376;50.932;4.442;2022-07-23T04:18:58;19.23;;;11.38;;
22417;SDS011;11376;50.932;4.442;2022-07-23T04:21:23;17.65;;;10.85;;
22417;SDS011;11376;50.932;4.442;2022-07-23T04:23:49;22.48;;;12.65;;
22417;SDS011;11376;50.932;4.442;2022-07-23T04:26:15;19.95;;;11.60;;
22417;SDS011;11376;50.932;4.442;2022-07-23T04:28:41;22.13;;;12.10;;
22417;SDS011;11376;50.932;4.442;2022-07-23T04:31:07;22.00;;;11.38;;
22417;SDS011;11376;50.932;4.442;2022-07-23T04:33:33;19.00;;;11.32;;
22417;SDS011;11376;50.932;4.442;2022-07-23T04:35:58;20.92;;;11.93;;
22417;SDS011;11376;50.932;4.442;2022-07-23T04:38:24;20.52;;;11.50;;
22417;SDS011;11376;50.932;4.442;2022-07-23T04:40:49;18.08;;;11.82;;
22417;SDS011;11376;50.932;4.442;2022-07-23T04:43:15;20.15;;;11.95;;
22417;SDS011;11376;50.932;4.442;2022-07-23T04:45:40;21.38;;;12.82;;
22417;SDS011;11376;50.932;4.442;2022-07-23T04:48:06;21.60;;;12.25;;
22417;SDS011;11376;50.932;4.442;2022-07-23T04:50:32;22.17;;;10.50;;
22417;SDS011;11376;50.932;4.442;2022-07-23T04:52:58;17.85;;;10.90;;
22417;SDS011;11376;50.932;4.442;2022-07-23T04:55:23;19.77;;;10.90;;
22417;SDS011;11376;50.932;4.442;2022-07-23T04:57:49;20.02;;;11.43;;
22417;SDS011;11376;50.932;4.442;2022-07-23T05:00:15;19.90;;;11.68;;
22417;SDS011;11376;50.932;4.442;2022-07-23T05:02:41;19.88;;;11.65;;
22417;SDS011;11376;50.932;4.442;2022-07-23T05:05:06;17.38;;;10.80;;
22417;SDS011;11376;50.932;4.442;2022-07-23T05:07:32;18.25;;;10.95;;
22417;SDS011;11376;50.932;4.442;2022-07-23T05:09:58;21.65;;;12.05;;
22417;SDS011;11376;50.932;4.442;2022-07-23T05:12:23;17.70;;;11.50;;
22417;SDS011;11376;50.932;4.442;2022-07-23T05:14:49;19.98;;;11.48;;
22417;SDS011;11376;50.932;4.442;2022-07-23T05:17:14;16.42;;;10.32;;
22417;SDS011;11376;50.932;4.442;2022-07-23T05:19:40;18.75;;;11.07;;
22417;SDS011;11376;50.932;4.442;2022-07-23T05:22:06;18.17;;;10.15;;
22417;SDS011;11376;50.932;4.442;2022-07-23T05:24:31;18.15;;;10.23;;
22417;SDS011;11376;50.932;4.442;2022-07-23T05:26:57;17.85;;;10.38;;
22417;SDS011;11376;50.932;4.442;2022-07-23T05:29:22;16.25;;;9.70;;
22417;SDS011;11376;50.932;4.442;2022-07-23T05:31:48;15.48;;;9.88;;
22417;SDS011;11376;50.932;4.442;2022-07-23T05:34:14;14.00;;;9.27;;
22417;SDS011;11376;50.932;4.442;2022-07-23T05:36:39;17.70;;;8.98;;
22417;SDS011;11376;50.932;4.442;2022-07-23T05:39:05;13.60;;;8.77;;
22417;SDS011;11376;50.932;4.442;2022-07-23T05:41:31;14.18;;;7.93;;
22417;SDS011;11376;50.932;4.442;2022-07-23T05:43:56;11.23;;;8.05;;
22417;SDS011;11376;50.932;4.442;2022-07-23T05:46:22;11.65;;;7.55;;
22417;SDS011;11376;50.932;4.442;2022-07-23T05:48:47;13.90;;;7.90;;
22417;SDS011;11376;50.932;4.442;2022-07-23T05:51:24;12.55;;;8.30;;
22417;SDS011;11376;50.932;4.442;2022-07-23T05:53:50;13.70;;;7.35;;
22417;SDS011;11376;50.932;4.442;2022-07-23T05:56:18;12.02;;;7.15;;
22417;SDS011;11376;50.932;4.442;2022-07-23T05:58:44;14.38;;;7.30;;
22417;SDS011;11376;50.932;4.442;2022-07-23T06:01:09;11.43;;;7.18;;
22417;SDS011;11376;50.932;4.442;2022-07-23T06:03:37;9.90;;;6.53;;
22417;SDS011;11376;50.932;4.442;2022-07-23T06:06:03;11.35;;;6.90;;
22417;SDS011;11376;50.932;4.442;2022-07-23T06:08:29;11.57;;;7.20;;
22417;SDS011;11376;50.932;4.442;2022-07-23T06:10:55;11.20;;;7.68;;
22417;SDS011;11376;50.932;4.442;2022-07-23T06:13:20;10.88;;;6.70;;
22417;SDS011;11376;50.932;4.442;2022-07-23T06:15:46;11.63;;;7.20;;
22417;SDS011;11376;50.932;4.442;2022-07-23T06:18:11;13.02;;;6.53;;
22417;SDS011;11376;50.932;4.442;2022-07-23T06:20:37;9.93;;;6.18;;
22417;SDS011;11376;50.932;4.442;2022-07-23T06:23:03;13.93;;;7.88;;
22417;SDS011;11376;50.932;4.442;2022-07-23T06:25:29;10.38;;;7.07;;
22417;SDS011;11376;50.932;4.442;2022-07-23T06:27:54;17.75;;;6.50;;
22417;SDS011;11376;50.932;4.442;2022-07-23T06:30:20;10.30;;;6.57;;
22417;SDS011;11376;50.932;4.442;2022-07-23T06:32:46;12.52;;;6.53;;
22417;SDS011;11376;50.932;4.442;2022-07-23T06:35:13;11.80;;;7.05;;
22417;SDS011;11376;50.932;4.442;2022-07-23T06:37:39;10.10;;;6.28;;
22417;SDS011;11376;50.932;4.442;2022-07-23T06:40:04;13.35;;;7.32;;
22417;SDS011;11376;50.932;4.442;2022-07-23T06:42:31;10.02;;;5.95;;
22417;SDS011;11376;50.932;4.442;2022-07-23T06:44:56;9.75;;;6.10;;
22417;SDS011;11376;50.932;4.442;2022-07-23T06:47:22;10.65;;;6.45;;
22417;SDS011;11376;50.932;4.442;2022-07-23T06:49:47;9.00;;;4.95;;
22417;SDS011;11376;50.932;4.442;2022-07-23T06:52:13;9.25;;;5.85;;
22417;SDS011;11376;50.932;4.442;2022-07-23T06:54:39;8.38;;;5.50;;
22417;SDS011;11376;50.932;4.442;2022-07-23T06:57:04;9.93;;;5.60;;
22417;SDS011;11376;50.932;4.442;2022-07-23T06:59:30;10.65;;;6.05;;
22417;SDS011;11376;50.932;4.442;2022-07-23T07:01:56;11.23;;;5.80;;
22417;SDS011;11376;50.932;4.442;2022-07-23T07:04:23;11.00;;;7.22;;
22417;SDS011;11376;50.932;4.442;2022-07-23T07:06:48;9.95;;;6.13;;
22417;SDS011;11376;50.932;4.442;2022-07-23T07:09:14;10.57;;;5.72;;
22417;SDS011;11376;50.932;4.442;2022-07-23T07:11:39;9.35;;;5.68;;
22417;SDS011;11376;50.932;4.442;2022-07-23T07:14:05;10.18;;;6.18;;
22417;SDS011;11376;50.932;4.442;2022-07-23T07:16:31;10.73;;;5.72;;
22417;SDS011;11376;50.932;4.442;2022-07-23T07:18:57;8.98;;;6.03;;
22417;SDS011;11376;50.932;4.442;2022-07-23T07:21:22;13.35;;;5.68;;
22417;SDS011;11376;50.932;4.442;2022-07-23T07:23:48;9.55;;;5.88;;
22417;SDS011;11376;50.932;4.442;2022-07-23T07:26:14;12.75;;;5.63;;
22417;SDS011;11376;50.932;4.442;2022-07-23T07:28:39;11.65;;;6.10;;
22417;SDS011;11376;50.932;4.442;2022-07-23T07:31:05;11.10;;;5.78;;
22417;SDS011;11376;50.932;4.442;2022-07-23T07:33:30;10.48;;;6.15;;
22417;SDS011;11376;50.932;4.442;2022-07-23T07:35:56;9.98;;;6.07;;
22417;SDS011;11376;50.932;4.442;2022-07-23T07:38:24;11.30;;;6.15;;
22417;SDS011;11376;50.932;4.442;2022-07-23T07:40:50;9.73;;;5.80;;
22417;SDS011;11376;50.932;4.442;2022-07-23T07:43:16;15.10;;;5.28;;
22417;SDS011;11376;50.932;4.442;2022-07-23T07:45:41;10.93;;;5.53;;
22417;SDS011;11376;50.932;4.442;2022-07-23T07:48:07;8.32;;;5.25;;
22417;SDS011;11376;50.932;4.442;2022-07-23T07:50:32;10.10;;;5.60;;
22417;SDS011;11376;50.932;4.442;2022-07-23T07:52:58;8.55;;;4.57;;
22417;SDS011;11376;50.932;4.442;2022-07-23T07:55:23;8.95;;;4.93;;
22417;SDS011;11376;50.932;4.442;2022-07-23T07:57:49;8.48;;;4.35;;
22417;SDS011;11376;50.932;4.442;2022-07-23T08:00:15;8.95;;;5.13;;
22417;SDS011;11376;50.932;4.442;2022-07-23T08:05:12;9.43;;;4.38;;
22417;SDS011;11376;50.932;4.442;2022-07-23T08:07:39;7.40;;;4.25;;
22417;SDS011;11376;50.932;4.442;2022-07-23T08:10:06;8.50;;;4.40;;
22417;SDS011;11376;50.932;4.442;2022-07-23T08:12:42;7.95;;;4.15;;
22417;SDS011;11376;50.932;4.442;2022-07-23T08:15:16;6.28;;;3.78;;
22417;SDS011;11376;50.932;4.442;2022-07-23T08:17:43;8.38;;;4.47;;
22417;SDS011;11376;50.932;4.442;2022-07-23T08:20:10;8.77;;;3.63;;
22417;SDS011;11376;50.932;4.442;2022-07-23T08:25:19;7.07;;;3.03;;
22417;SDS011;11376;50.932;4.442;2022-07-23T08:28:02;7.45;;;3.80;;
22417;SDS011;11376;50.932;4.442;2022-07-23T08:30:30;8.35;;;3.83;;
22417;SDS011;11376;50.932;4.442;2022-07-23T08:37:58;6.53;;;3.30;;
22417;SDS011;11376;50.932;4.442;2022-07-23T08:40:25;7.22;;;3.20;;
22417;SDS011;11376;50.932;4.442;2022-07-23T08:42:52;8.80;;;3.67;;
22417;SDS011;11376;50.932;4.442;2022-07-23T08:45:19;7.43;;;3.35;;
22417;SDS011;11376;50.932;4.442;2022-07-23T08:47:50;10.30;;;3.92;;
22417;SDS011;11376;50.932;4.442;2022-07-23T08:50:16;5.43;;;2.97;;
22417;SDS011;11376;50.932;4.442;2022-07-23T08:52:42;4.93;;;2.70;;
22417;SDS011;11376;50.932;4.442;2022-07-23T08:55:08;6.72;;;3.00;;
22417;SDS011;11376;50.932;4.442;2022-07-23T08:57:34;3.80;;;2.10;;
22417;SDS011;11376;50.932;4.442;2022-07-23T09:00:00;8.05;;;3.55;;
22417;SDS011;11376;50.932;4.442;2022-07-23T09:02:26;7.53;;;3.30;;
22417;SDS011;11376;50.932;4.442;2022-07-23T09:04:52;7.03;;;3.20;;
22417;SDS011;11376;50.932;4.442;2022-07-23T09:07:17;4.85;;;2.83;;
22417;SDS011;11376;50.932;4.442;2022-07-23T09:09:43;6.90;;;2.50;;
22417;SDS011;11376;50.932;4.442;2022-07-23T09:12:09;7.72;;;2.80;;
22417;SDS011;11376;50.932;4.442;2022-07-23T09:14:39;8.85;;;3.90;;
22417;SDS011;11376;50.932;4.442;2022-07-23T09:19:35;6.30;;;2.92;;
22417;SDS011;11376;50.932;4.442;2022-07-23T09:27:49;6.50;;;3.00;;
22417;SDS011;11376;50.932;4.442;2022-07-23T09:30:18;5.90;;;2.53;;
22417;SDS011;11376;50.932;4.442;2022-07-23T09:33:03;5.22;;;2.72;;
22417;SDS011;11376;50.932;4.442;2022-07-23T09:35:45;6.28;;;2.60;;
22417;SDS011;11376;50.932;4.442;2022-07-23T09:38:14;7.05;;;2.53;;
22417;SDS011;11376;50.932;4.442;2022-07-23T09:40:40;8.52;;;2.45;;
22417;SDS011;11376;50.932;4.442;2022-07-23T09:43:05;8.57;;;2.53;;
22417;SDS011;11376;50.932;4.442;2022-07-23T09:45:31;7.55;;;2.85;;
22417;SDS011;11376;50.932;4.442;2022-07-23T09:48:10;8.43;;;3.17;;
22417;SDS011;11376;50.932;4.442;2022-07-23T09:50:40;4.68;;;2.60;;
22417;SDS011;11376;50.932;4.442;2022-07-23T09:53:07;6.70;;;2.80;;
22417;SDS011;11376;50.932;4.442;2022-07-23T09:55:33;9.85;;;2.70;;
22417;SDS011;11376;50.932;4.442;2022-07-23T09:58:06;7.03;;;2.60;;
22417;SDS011;11376;50.932;4.442;2022-07-23T10:00:38;6.28;;;2.40;;
22417;SDS011;11376;50.932;4.442;2022-07-23T10:03:04;8.57;;;2.60;;
22417;SDS011;11376;50.932;4.442;2022-07-23T10:05:31;5.00;;;2.13;;
22417;SDS011;11376;50.932;4.442;2022-07-23T10:08:01;6.00;;;1.80;;
22417;SDS011;11376;50.932;4.442;2022-07-23T10:10:27;7.25;;;2.35;;
22417;SDS011;11376;50.932;4.442;2022-07-23T10:12:55;3.55;;;1.90;;
22417;SDS011;11376;50.932;4.442;2022-07-23T10:15:41;3.72;;;1.63;;
22417;SDS011;11376;50.932;4.442;2022-07-23T10:18:07;5.60;;;1.83;;
22417;SDS011;11376;50.932;4.442;2022-07-23T10:20:36;7.10;;;2.28;;
22417;SDS011;11376;50.932;4.442;2022-07-23T10:23:13;5.88;;;2.00;;
22417;SDS011;11376;50.932;4.442;2022-07-23T10:25:49;4.80;;;1.70;;
22417;SDS011;11376;50.932;4.442;2022-07-23T10:28:26;4.97;;;1.80;;
22417;SDS011;11376;50.932;4.442;2022-07-23T10:33:54;8.43;;;2.00;;
22417;SDS011;11376;50.932;4.442;2022-07-23T10:36:27;8.82;;;2.08;;
22417;SDS011;11376;50.932;4.442;2022-07-23T10:39:14;9.88;;;2.15;;
22417;SDS011;11376;50.932;4.442;2022-07-23T10:42:07;5.05;;;1.63;;
22417;SDS011;11376;50.932;4.442;2022-07-23T10:44:37;5.00;;;1.60;;
22417;SDS011;11376;50.932;4.442;2022-07-23T10:47:08;4.43;;;1.30;;
22417;SDS011;11376;50.932;4.442;2022-07-23T10:49:49;1.90;;;1.23;;
22417;SDS011;11376;50.932;4.442;2022-07-23T10:52:22;2.90;;;1.23;;
22417;SDS011;11376;50.932;4.442;2022-07-23T10:54:56;1.95;;;1.10;;
22417;SDS011;11376;50.932;4.442;2022-07-23T10:57:47;5.10;;;1.23;;
22417;SDS011;11376;50.932;4.442;2022-07-23T11:00:16;3.35;;;1.08;;
22417;SDS011;11376;50.932;4.442;2022-07-23T11:02:47;5.20;;;1.25;;
22417;SDS011;11376;50.932;4.442;2022-07-23T11:05:18;5.45;;;1.25;;
22417;SDS011;11376;50.932;4.442;2022-07-23T11:14:07;3.38;;;1.25;;
22417;SDS011;11376;50.932;4.442;2022-07-23T11:16:19;2.42;;;1.00;;
22417;SDS011;11376;50.932;4.442;2022-07-23T11:18:53;2.85;;;1.30;;
22417;SDS011;11376;50.932;4.442;2022-07-23T11:31:51;2.88;;;1.00;;
22417;SDS011;11376;50.932;4.442;2022-07-23T11:34:28;2.42;;;1.10;;
22417;SDS011;11376;50.932;4.442;2022-07-23T11:36:57;2.20;;;1.48;;
22417;SDS011;11376;50.932;4.442;2022-07-23T11:39:24;1.95;;;1.10;;
22417;SDS011;11376;50.932;4.442;2022-07-23T11:41:54;3.70;;;1.13;;
22417;SDS011;11376;50.932;4.442;2022-07-23T11:44:28;2.33;;;1.40;;
22417;SDS011;11376;50.932;4.442;2022-07-23T11:47:00;4.28;;;1.50;;
22417;SDS011;11376;50.932;4.442;2022-07-23T11:49:28;1.65;;;1.10;;
22417;SDS011;11376;50.932;4.442;2022-07-23T11:52:11;1.77;;;1.20;;
22417;SDS011;11376;50.932;4.442;2022-07-23T11:54:49;2.55;;;1.10;;
22417;SDS011;11376;50.932;4.442;2022-07-23T11:57:17;2.55;;;1.35;;
22417;SDS011;11376;50.932;4.442;2022-07-23T11:59:43;2.50;;;1.13;;
22417;SDS011;11376;50.932;4.442;2022-07-23T12:02:12;3.42;;;1.33;;
22417;SDS011;11376;50.932;4.442;2022-07-23T12:04:39;3.03;;;1.13;;
22417;SDS011;11376;50.932;4.442;2022-07-23T12:07:04;2.63;;;1.23;;
22417;SDS011;11376;50.932;4.442;2022-07-23T12:09:47;1.52;;;1.02;;
22417;SDS011;11376;50.932;4.442;2022-07-23T12:12:13;2.28;;;0.90;;
22417;SDS011;11376;50.932;4.442;2022-07-23T12:14:47;2.72;;;1.02;;
22417;SDS011;11376;50.932;4.442;2022-07-23T12:17:21;2.80;;;1.00;;
22417;SDS011;11376;50.932;4.442;2022-07-23T12:20:00;2.75;;;1.20;;
22417;SDS011;11376;50.932;4.442;2022-07-23T12:22:39;2.60;;;1.30;;
22417;SDS011;11376;50.932;4.442;2022-07-23T12:27:43;3.15;;;1.38;;
22417;SDS011;11376;50.932;4.442;2022-07-23T12:30:21;2.28;;;1.30;;
22417;SDS011;11376;50.932;4.442;2022-07-23T12:32:53;4.22;;;1.30;;
22417;SDS011;11376;50.932;4.442;2022-07-23T12:35:21;2.03;;;1.23;;
22417;SDS011;11376;50.932;4.442;2022-07-23T12:37:48;1.83;;;1.20;;
22417;SDS011;11376;50.932;4.442;2022-07-23T12:40:37;2.55;;;1.20;;
22417;SDS011;11376;50.932;4.442;2022-07-23T12:43:11;2.58;;;1.50;;
22417;SDS011;11376;50.932;4.442;2022-07-23T12:45:49;2.75;;;1.23;;
22417;SDS011;11376;50.932;4.442;2022-07-23T12:48:29;1.98;;;1.10;;
22417;SDS011;11376;50.932;4.442;2022-07-23T12:51:02;2.03;;;1.00;;
22417;SDS011;11376;50.932;4.442;2022-07-23T12:56:07;2.17;;;1.38;;
22417;SDS011;11376;50.932;4.442;2022-07-23T13:01:10;2.42;;;1.35;;
22417;SDS011;11376;50.932;4.442;2022-07-23T13:03:44;1.83;;;1.20;;
22417;SDS011;11376;50.932;4.442;2022-07-23T13:06:28;1.95;;;1.30;;
22417;SDS011;11376;50.932;4.442;2022-07-23T13:08:55;1.92;;;1.38;;
22417;SDS011;11376;50.932;4.442;2022-07-23T13:11:21;2.50;;;1.23;;
22417;SDS011;11376;50.932;4.442;2022-07-23T13:13:47;2.13;;;1.38;;
22417;SDS011;11376;50.932;4.442;2022-07-23T13:16:13;1.73;;;1.20;;
22417;SDS011;11376;50.932;4.442;2022-07-23T13:18:38;2.63;;;1.42;;
22417;SDS011;11376;50.932;4.442;2022-07-23T13:21:04;1.95;;;1.50;;
22417;SDS011;11376;50.932;4.442;2022-07-23T13:23:30;2.55;;;1.50;;
22417;SDS011;11376;50.932;4.442;2022-07-23T13:25:55;2.42;;;1.35;;
22417;SDS011;11376;50.932;4.442;2022-07-23T13:28:21;2.53;;;1.35;;
22417;SDS011;11376;50.932;4.442;2022-07-23T13:30:48;3.13;;;2.10;;
22417;SDS011;11376;50.932;4.442;2022-07-23T13:33:15;2.78;;;1.42;;
22417;SDS011;11376;50.932;4.442;2022-07-23T13:35:45;4.25;;;1.90;;
22417;SDS011;11376;50.932;4.442;2022-07-23T13:38:11;8.27;;;1.70;;
22417;SDS011;11376;50.932;4.442;2022-07-23T13:40:38;3.20;;;1.60;;
22417;SDS011;11376;50.932;4.442;2022-07-23T13:43:06;3.42;;;1.63;;
22417;SDS011;11376;50.932;4.442;2022-07-23T13:45:32;2.33;;;1.50;;
22417;SDS011;11376;50.932;4.442;2022-07-23T13:47:58;3.72;;;1.77;;
22417;SDS011;11376;50.932;4.442;2022-07-23T13:50:24;3.72;;;1.30;;
22417;SDS011;11376;50.932;4.442;2022-07-23T13:52:49;2.15;;;1.30;;
22417;SDS011;11376;50.932;4.442;2022-07-23T13:55:15;2.83;;;1.70;;
22417;SDS011;11376;50.932;4.442;2022-07-23T13:57:41;5.95;;;2.45;;
22417;SDS011;11376;50.932;4.442;2022-07-23T14:00:07;5.20;;;2.45;;
22417;SDS011;11376;50.932;4.442;2022-07-23T14:02:35;3.35;;;2.20;;
22417;SDS011;11376;50.932;4.442;2022-07-23T14:05:03;3.78;;;2.00;;
22417;SDS011;11376;50.932;4.442;2022-07-23T14:07:30;3.22;;;1.80;;
22417;SDS011;11376;50.932;4.442;2022-07-23T14:09:55;4.53;;;3.00;;
22417;SDS011;11376;50.932;4.442;2022-07-23T14:12:21;2.75;;;1.80;;
22417;SDS011;11376;50.932;4.442;2022-07-23T14:14:47;5.45;;;2.08;;
22417;SDS011;11376;50.932;4.442;2022-07-23T14:17:12;5.00;;;2.20;;
22417;SDS011;11376;50.932;4.442;2022-07-23T14:19:38;6.95;;;1.70;;
22417;SDS011;11376;50.932;4.442;2022-07-23T14:22:04;2.85;;;1.80;;
22417;SDS011;11376;50.932;4.442;2022-07-23T14:24:29;2.92;;;1.58;;
22417;SDS011;11376;50.932;4.442;2022-07-23T14:26:55;4.28;;;1.67;;
22417;SDS011;11376;50.932;4.442;2022-07-23T14:29:20;3.35;;;1.50;;
22417;SDS011;11376;50.932;4.442;2022-07-23T14:31:46;3.72;;;1.63;;
22417;SDS011;11376;50.932;4.442;2022-07-23T14:34:12;3.03;;;1.63;;
22417;SDS011;11376;50.932;4.442;2022-07-23T14:36:37;3.15;;;1.83;;
22417;SDS011;11376;50.932;4.442;2022-07-23T14:39:03;3.78;;;2.00;;
22417;SDS011;11376;50.932;4.442;2022-07-23T14:41:29;2.22;;;1.40;;
22417;SDS011;11376;50.932;4.442;2022-07-23T14:43:54;2.88;;;1.70;;
22417;SDS011;11376;50.932;4.442;2022-07-23T14:46:21;3.35;;;1.70;;
22417;SDS011;11376;50.932;4.442;2022-07-23T14:48:46;3.70;;;1.60;;
22417;SDS011;11376;50.932;4.442;2022-07-23T14:51:12;2.95;;;1.40;;
22417;SDS011;11376;50.932;4.442;2022-07-23T14:53:37;2.53;;;1.50;;
22417;SDS011;11376;50.932;4.442;2022-07-23T14:56:04;4.22;;;1.67;;
22417;SDS011;11376;50.932;4.442;2022-07-23T14:58:29;4.40;;;1.52;;
22417;SDS011;11376;50.932;4.442;2022-07-23T15:00:55;3.50;;;1.77;;
22417;SDS011;11376;50.932;4.442;2022-07-23T15:03:21;2.70;;;1.38;;
22417;SDS011;11376;50.932;4.442;2022-07-23T15:05:46;3.10;;;1.75;;
22417;SDS011;11376;50.932;4.442;2022-07-23T15:08:12;2.72;;;1.73;;
22417;SDS011;11376;50.932;4.442;2022-07-23T15:10:37;3.10;;;1.70;;
22417;SDS011;11376;50.932;4.442;2022-07-23T15:13:03;4.88;;;1.67;;
22417;SDS011;11376;50.932;4.442;2022-07-23T15:15:29;4.78;;;1.50;;
22417;SDS011;11376;50.932;4.442;2022-07-23T15:17:55;4.07;;;1.70;;
22417;SDS011;11376;50.932;4.442;2022-07-23T15:20:20;3.80;;;1.70;;
22417;SDS011;11376;50.932;4.442;2022-07-23T15:22:46;2.65;;;1.60;;